Time;durP1;ratioP1;P1;durP2;ratioP2;P2;SDS_P1;SDS_P2;PMS_P1;PMS_P2;Temp;Humidity;BMP_temperature;BMP_pressure;BME280_temperature;BME280_humidity;BME280_pressure;Samples;Min_cycle;Max_cycle;Signal;HPM_P1;HPM_P2
2022/09/21 00:01:17;;;;;;;885.87;822.40;;;6.60;99.90;;;;;;5001382;28;20545;-80
2022/09/21 00:03:44;;;;;;;896.50;829.70;;;6.60;99.90;;;;;;5000718;28;21005;-80
2022/09/21 00:06:14;;;;;;;900.37;831.23;;;6.50;99.90;;;;;;5000916;28;20450;-80
2022/09/21 00:08:42;;;;;;;904.43;835.33;;;6.60;99.90;;;;;;5000121;28;20976;-80
2022/09/21 00:11:12;;;;;;;908.90;838.90;;;6.50;99.90;;;;;;5000997;28;20450;-80
2022/09/21 00:13:42;;;;;;;901.33;832.07;;;6.60;99.90;;;;;;5000405;28;20498;-80
2022/09/21 00:16:09;;;;;;;892.40;823.30;;;6.50;99.90;;;;;;5000301;28;21042;-80
2022/09/21 00:18:36;;;;;;;881.27;814.83;;;6.50;99.90;;;;;;5001274;28;20458;-81
2022/09/21 00:21:07;;;;;;;880.50;814.43;;;6.50;99.90;;;;;;5000315;28;20450;-80
2022/09/21 00:23:34;;;;;;;886.70;821.00;;;6.50;99.90;;;;;;5000402;28;20482;-80
2022/09/21 00:26:06;;;;;;;878.00;813.60;;;6.60;99.90;;;;;;5000099;28;20450;-79
2022/09/21 00:28:33;;;;;;;882.17;815.17;;;6.60;99.90;;;;;;5000575;28;20458;-80
2022/09/21 00:31:03;;;;;;;906.27;838.60;;;6.50;99.90;;;;;;4999824;28;20458;-80
2022/09/21 00:33:30;;;;;;;901.53;832.33;;;6.40;99.90;;;;;;5000731;28;20481;-80
2022/09/21 00:36:02;;;;;;;889.60;822.27;;;6.50;99.90;;;;;;4999941;28;20457;-80
2022/09/21 00:38:28;;;;;;;892.80;825.80;;;6.40;99.90;;;;;;5000799;28;20451;-79
2022/09/21 00:40:55;;;;;;;893.03;824.47;;;6.30;99.90;;;;;;4999644;28;20454;-79
2022/09/21 00:43:22;;;;;;;891.90;824.00;;;6.30;99.90;;;;;;5000187;28;21004;-79
2022/09/21 00:45:52;;;;;;;886.57;817.17;;;6.20;99.90;;;;;;4999549;28;20452;-80
2022/09/21 00:48:20;;;;;;;903.17;833.83;;;6.20;99.90;;;;;;5000327;28;20997;-81
2022/09/21 00:50:52;;;;;;;904.60;836.20;;;6.10;99.90;;;;;;5000430;28;20452;-80
2022/09/21 00:53:20;;;;;;;904.60;836.50;;;6.10;99.90;;;;;;4999799;28;20908;-80
2022/09/21 00:55:49;;;;;;;899.67;831.87;;;6.00;99.90;;;;;;4999535;28;20477;-80
2022/09/21 00:58:23;;;;;;;901.00;833.20;;;6.00;99.90;;;;;;5000258;28;20455;-79
2022/09/21 01:00:49;;;;;;;900.63;833.43;;;5.90;99.90;;;;;;5000759;28;20450;-79
2022/09/21 01:03:16;;;;;;;896.90;828.90;;;5.80;99.90;;;;;;4999905;28;20501;-80
2022/09/21 01:05:44;;;;;;;895.47;827.07;;;5.80;99.90;;;;;;4999353;28;20810;-80
2022/09/21 01:08:14;;;;;;;892.50;823.50;;;5.80;99.90;;;;;;4999475;28;20454;-80
2022/09/21 01:10:49;;;;;;;884.37;816.10;;;5.80;99.90;;;;;;4999034;28;20457;-80
2022/09/21 01:13:25;;;;;;;894.50;827.17;;;5.80;99.90;;;;;;4999767;28;20481;-81
2022/09/21 01:16:00;;;;;;;888.40;821.33;;;5.80;99.90;;;;;;4999126;28;20465;-79
2022/09/21 01:18:35;;;;;;;898.07;831.03;;;5.80;99.90;;;;;;5000317;28;20457;-81
2022/09/21 01:21:23;;;;;;;893.23;826.70;;;5.80;99.90;;;;;;4999873;28;20476;-80
2022/09/21 01:24:18;;;;;;;898.40;833.00;;;5.70;99.90;;;;;;4999357;28;20474;-80
2022/09/21 01:27:04;;;;;;;907.70;835.30;;;5.70;99.90;;;;;;4980480;28;20463;-80
2022/09/21 01:29:37;;;;;;;908.23;832.43;;;5.50;99.90;;;;;;4981957;28;20515;-81
2022/09/21 01:32:09;;;;;;;899.47;822.97;;;5.60;99.90;;;;;;4999877;28;20462;-81
2022/09/21 01:34:44;;;;;;;901.97;825.80;;;5.90;99.90;;;;;;4998829;28;20485;-79
2022/09/21 01:37:17;;;;;;;909.27;835.40;;;5.90;99.90;;;;;;4999565;28;20453;-81
2022/09/21 01:39:48;;;;;;;913.30;840.60;;;5.90;99.90;;;;;;4999715;28;20450;-80
2022/09/21 01:42:17;;;;;;;919.57;846.53;;;5.80;99.90;;;;;;5000361;28;20461;-80
2022/09/21 01:44:47;;;;;;;923.13;850.70;;;5.80;99.90;;;;;;4999058;28;20454;-80
2022/09/21 01:47:16;;;;;;;919.17;848.07;;;5.70;99.90;;;;;;4999881;28;20454;-80
2022/09/21 01:49:46;;;;;;;919.93;849.10;;;5.60;99.90;;;;;;5000441;28;20462;-80
2022/09/21 01:52:22;;;;;;;924.93;851.23;;;5.50;99.90;;;;;;4999858;28;20465;-78
2022/09/21 01:54:54;;;;;;;923.80;845.50;;;5.40;99.90;;;;;;4998854;28;20465;-80
2022/09/21 01:57:27;;;;;;;919.60;844.80;;;5.50;99.90;;;;;;4999672;28;20454;-80
2022/09/21 01:59:58;;;;;;;919.77;846.13;;;5.60;99.90;;;;;;4999065;28;20461;-81
2022/09/21 02:02:31;;;;;;;922.37;849.97;;;5.60;99.90;;;;;;4999024;28;20826;-80
2022/09/21 02:04:59;;;;;;;923.27;848.07;;;5.60;99.90;;;;;;4999026;28;20451;-79
2022/09/21 02:07:26;;;;;;;918.27;843.00;;;5.50;99.90;;;;;;4999867;28;20462;-80
2022/09/21 02:09:54;;;;;;;931.83;856.53;;;5.60;99.90;;;;;;4999176;28;20460;-80
2022/09/21 02:12:21;;;;;;;932.23;855.33;;;5.60;99.90;;;;;;4999338;28;20458;-79
2022/09/21 02:14:54;;;;;;;933.93;854.13;;;5.60;99.90;;;;;;4998479;28;20991;-80
2022/09/21 02:17:34;;;;;;;938.50;858.97;;;5.70;99.90;;;;;;4999168;28;20450;-79
2022/09/21 02:20:09;;;;;;;946.00;867.57;;;5.60;99.90;;;;;;4999494;28;20839;-82
2022/09/21 02:22:43;;;;;;;950.77;873.27;;;5.60;99.90;;;;;;5001201;28;20480;-80
2022/09/21 02:25:15;;;;;;;946.43;866.40;;;5.60;99.90;;;;;;5001751;28;20449;-80
2022/09/21 02:27:50;;;;;;;935.63;854.90;;;5.60;99.90;;;;;;5002664;28;20458;-81
2022/09/21 02:30:19;;;;;;;942.13;862.17;;;5.60;99.90;;;;;;5002395;28;20826;-80
2022/09/21 02:32:52;;;;;;;945.10;865.10;;;5.70;99.90;;;;;;5003058;28;20481;-80
2022/09/21 02:35:27;;;;;;;945.50;862.47;;;5.60;99.90;;;;;;5001241;28;20463;-78
2022/09/21 02:38:03;;;;;;;941.30;858.60;;;5.60;99.90;;;;;;5002331;28;20461;-80
2022/09/21 02:40:35;;;;;;;945.43;862.00;;;5.70;99.90;;;;;;5002343;28;20527;-80
2022/09/21 02:43:05;;;;;;;943.87;860.83;;;5.70;99.90;;;;;;5002784;28;20492;-80
2022/09/21 02:45:39;;;;;;;955.33;871.13;;;5.80;99.90;;;;;;5002295;28;20446;-80
2022/09/21 02:48:11;;;;;;;961.87;878.73;;;5.70;99.90;;;;;;5002988;28;20454;-81
2022/09/21 02:50:42;;;;;;;964.13;882.33;;;5.70;99.90;;;;;;5002151;28;20465;-80
2022/09/21 02:53:11;;;;;;;959.40;877.67;;;5.70;99.90;;;;;;5002520;28;21038;-81
2022/09/21 02:55:38;;;;;;;962.70;880.63;;;5.60;99.90;;;;;;5001605;28;20473;-79
2022/09/21 02:58:10;;;;;;;971.47;887.47;;;5.50;99.90;;;;;;5001817;28;20458;-80
2022/09/21 03:00:37;;;;;;;968.03;883.87;;;5.60;99.90;;;;;;5001978;28;20458;-80
2022/09/21 03:03:17;;;;;;;965.23;881.57;;;5.50;99.90;;;;;;5002161;28;20477;-80
2022/09/21 03:05:44;;;;;;;962.67;878.20;;;5.50;99.90;;;;;;5001672;28;20501;-80
2022/09/21 03:08:11;;;;;;;964.63;881.43;;;5.50;99.90;;;;;;5001911;28;20997;-80
2022/09/21 03:10:39;;;;;;;967.37;884.23;;;5.50;99.90;;;;;;5001509;28;20454;-80
2022/09/21 03:13:07;;;;;;;965.07;883.33;;;5.40;99.90;;;;;;5001467;28;20474;-80
2022/09/21 03:15:34;;;;;;;968.53;886.63;;;5.50;99.90;;;;;;5001426;28;20520;-81
2022/09/21 03:18:02;;;;;;;955.83;875.63;;;5.40;99.90;;;;;;5001315;28;20454;-80
2022/09/21 03:20:31;;;;;;;945.57;866.40;;;5.30;99.90;;;;;;5001677;28;20453;-80
2022/09/21 03:22:58;;;;;;;956.43;875.23;;;5.30;99.90;;;;;;5001139;28;20474;-80
2022/09/21 03:25:24;;;;;;;958.97;878.77;;;5.30;99.90;;;;;;5001640;28;20446;-80
2022/09/21 03:27:52;;;;;;;960.27;877.20;;;5.30;99.90;;;;;;5001151;28;20458;-80
2022/09/21 03:30:19;;;;;;;961.40;877.67;;;5.20;99.90;;;;;;5001700;28;20834;-80
2022/09/21 03:32:48;;;;;;;959.37;875.40;;;5.20;99.90;;;;;;5000744;28;20501;-80
2022/09/21 03:35:15;;;;;;;954.30;870.60;;;5.20;99.90;;;;;;5001264;28;20482;-79
2022/09/21 03:37:43;;;;;;;944.00;862.60;;;5.30;99.90;;;;;;5001002;28;20455;-81
2022/09/21 03:40:11;;;;;;;950.10;868.90;;;5.30;99.90;;;;;;5001061;28;20457;-81
2022/09/21 03:42:38;;;;;;;943.43;863.50;;;5.20;99.90;;;;;;5000587;28;20482;-79
2022/09/21 03:45:06;;;;;;;955.63;876.00;;;5.20;99.90;;;;;;5000653;28;20460;-82
2022/09/21 03:47:33;;;;;;;955.60;875.83;;;5.00;99.90;;;;;;5001169;28;20465;-81
2022/09/21 03:49:59;;;;;;;951.43;871.40;;;4.90;99.90;;;;;;5001288;28;20477;-80
2022/09/21 03:52:26;;;;;;;940.07;860.77;;;4.90;99.90;;;;;;5000219;28;20495;-81
2022/09/21 03:54:54;;;;;;;935.97;857.20;;;4.90;99.90;;;;;;5001000;28;20550;-80
2022/09/21 03:57:21;;;;;;;934.73;855.20;;;4.80;99.90;;;;;;5000615;28;20461;-81
2022/09/21 04:00:05;;;;;;;943.57;862.73;;;4.80;99.90;;;;;;5001086;28;20450;-80
2022/09/21 04:02:32;;;;;;;907.33;828.00;;;4.90;99.90;;;;;;5000116;28;20457;-80
2022/09/21 04:05:05;;;;;;;902.80;823.83;;;4.80;99.90;;;;;;5000477;28;20461;-81
2022/09/21 04:10:42;;;;;;;929.03;846.17;;;4.70;99.90;;;;;;4993324;28;20496;-81
2022/09/21 04:13:41;;;;;;;918.50;834.50;;;4.70;99.90;;;;;;4979607;28;20855;-81
2022/09/21 04:19:23;;;;;;;920.80;838.70;;;5.00;99.90;;;;;;4905543;29;20453;-80
2022/09/21 04:21:50;;;;;;;933.30;850.00;;;5.10;99.90;;;;;;4988256;28;20657;-81
2022/09/21 04:24:51;;;;;;;912.40;829.37;;;5.00;99.90;;;;;;4999082;28;20481;-80
2022/09/21 04:27:44;;;;;;;935.17;852.37;;;5.10;99.90;;;;;;4998122;28;20454;-80
2022/09/21 04:30:13;;;;;;;941.33;858.53;;;5.00;99.90;;;;;;4975521;28;20979;-80
2022/09/21 04:40:11;;;;;;;964.63;876.67;;;4.90;99.90;;;;;;4832795;29;20463;-80
2022/09/21 04:43:33;;;;;;;929.90;847.50;;;5.00;99.90;;;;;;4934122;29;20479;-80
2022/09/21 04:46:06;;;;;;;927.30;844.77;;;4.90;99.90;;;;;;4988612;28;20521;-82
2022/09/21 04:48:33;;;;;;;941.37;858.70;;;4.80;99.90;;;;;;4987076;28;20450;-81
2022/09/21 04:51:00;;;;;;;940.03;858.10;;;4.80;99.90;;;;;;4996953;28;20458;-80
2022/09/21 04:53:51;;;;;;;940.50;855.47;;;4.70;99.90;;;;;;4978973;28;20479;-80
2022/09/21 04:56:26;;;;;;;932.70;849.80;;;4.80;99.90;;;;;;4961693;28;20483;-81
2022/09/21 04:58:53;;;;;;;933.70;851.37;;;4.80;99.90;;;;;;4979537;28;20465;-80
2022/09/21 05:01:48;;;;;;;933.77;850.87;;;4.70;99.90;;;;;;4977361;28;20461;-80
2022/09/21 05:04:23;;;;;;;923.57;842.30;;;4.70;99.90;;;;;;5036466;23;20481;-79
2022/09/21 05:07:12;;;;;;;937.93;856.10;;;4.70;99.90;;;;;;5018039;28;20532;-80
2022/09/21 05:10:02;;;;;;;934.20;852.60;;;4.70;99.90;;;;;;4995710;28;20464;-79
2022/09/21 05:12:29;;;;;;;924.43;844.77;;;4.90;99.90;;;;;;4995779;28;20462;-80
2022/09/21 05:14:56;;;;;;;926.10;844.23;;;4.90;99.90;;;;;;4998223;28;20461;-80
2022/09/21 05:17:24;;;;;;;923.73;842.10;;;4.90;99.90;;;;;;4998206;28;20462;-81
2022/09/21 05:19:52;;;;;;;921.50;840.13;;;4.80;99.90;;;;;;4999221;28;20465;-80
2022/09/21 05:22:19;;;;;;;931.30;845.77;;;4.90;99.90;;;;;;4997860;28;20458;-80
2022/09/21 05:24:46;;;;;;;919.10;832.10;;;4.90;99.90;;;;;;5011401;28;20950;-80
2022/09/21 05:27:13;;;;;;;910.33;822.10;;;4.90;99.90;;;;;;5019380;28;20445;-80
2022/09/21 05:29:40;;;;;;;928.63;836.73;;;5.10;99.90;;;;;;5017427;28;20453;-83
2022/09/21 05:32:14;;;;;;;923.70;831.17;;;5.30;99.90;;;;;;5017650;28;20460;-80
2022/09/21 05:34:57;;;;;;;921.73;835.10;;;5.50;99.90;;;;;;5016696;28;20976;-80
2022/09/21 05:37:40;;;;;;;923.53;836.43;;;5.50;99.90;;;;;;5017555;28;20524;-79
2022/09/21 05:40:10;;;;;;;931.03;843.83;;;5.40;99.90;;;;;;5017692;28;20449;-80
2022/09/21 05:42:38;;;;;;;923.23;837.23;;;5.50;99.90;;;;;;5017981;28;20469;-81
2022/09/21 05:45:06;;;;;;;934.40;848.47;;;5.50;99.90;;;;;;5017314;28;20464;-80
2022/09/21 05:47:39;;;;;;;934.00;847.07;;;5.50;99.90;;;;;;5017364;28;20460;-80
2022/09/21 05:50:23;;;;;;;924.03;838.83;;;5.70;99.90;;;;;;5016577;28;20445;-81
2022/09/21 05:52:58;;;;;;;923.97;838.27;;;5.80;99.90;;;;;;5016892;28;20476;-80
2022/09/21 05:55:32;;;;;;;919.63;834.73;;;5.80;99.90;;;;;;5015740;28;21000;-80
2022/09/21 05:58:06;;;;;;;925.10;839.77;;;5.80;99.90;;;;;;5020951;28;20449;-81
2022/09/21 06:00:41;;;;;;;936.70;850.00;;;5.70;99.90;;;;;;5020280;28;20451;-80
2022/09/21 06:03:26;;;;;;;941.10;855.23;;;5.70;99.90;;;;;;5019296;28;20483;-79
2022/09/21 06:05:55;;;;;;;927.40;842.17;;;5.70;99.90;;;;;;5020054;28;20457;-80
2022/09/21 06:08:21;;;;;;;933.27;847.13;;;5.80;99.90;;;;;;5018773;28;20460;-80
2022/09/21 06:10:48;;;;;;;940.47;853.47;;;5.80;99.90;;;;;;5008157;28;20462;-80
2022/09/21 06:13:16;;;;;;;931.90;844.60;;;5.90;99.90;;;;;;5011303;28;20480;-81
2022/09/21 06:15:42;;;;;;;919.47;833.70;;;5.90;99.90;;;;;;5021034;28;20848;-80
2022/09/21 06:18:10;;;;;;;925.43;838.03;;;6.10;99.90;;;;;;5020935;28;20460;-80
2022/09/21 06:20:37;;;;;;;946.27;855.07;;;6.30;99.90;;;;;;5019303;28;20449;-81
2022/09/21 06:23:07;;;;;;;942.93;853.77;;;6.40;99.90;;;;;;5020047;28;20473;-82
2022/09/21 06:25:34;;;;;;;935.80;848.73;;;6.40;99.90;;;;;;5020263;28;20449;-81
2022/09/21 06:28:03;;;;;;;908.73;821.33;;;6.60;99.90;;;;;;5019547;28;20453;-83
2022/09/21 06:30:30;;;;;;;951.27;860.17;;;6.70;99.90;;;;;;5019795;28;20449;-81
2022/09/21 06:32:59;;;;;;;947.10;858.07;;;6.80;99.90;;;;;;5020631;28;20520;-81
2022/09/21 06:35:27;;;;;;;947.50;856.10;;;6.90;99.90;;;;;;5018979;28;20938;-83
2022/09/21 06:37:57;;;;;;;936.63;847.60;;;7.00;99.90;;;;;;5019554;28;20460;-81
2022/09/21 06:40:26;;;;;;;931.67;842.80;;;7.10;99.90;;;;;;5017887;28;20457;-80
2022/09/21 06:42:56;;;;;;;932.30;843.60;;;7.20;99.90;;;;;;5017349;28;20473;-81
2022/09/21 06:45:23;;;;;;;930.47;841.10;;;7.30;99.90;;;;;;5018890;28;20454;-83
2022/09/21 06:47:49;;;;;;;924.70;836.20;;;7.50;99.90;;;;;;5019483;28;20827;-82
2022/09/21 06:50:16;;;;;;;926.23;837.33;;;7.60;99.90;;;;;;5023360;28;20465;-82
2022/09/21 06:52:43;;;;;;;920.27;831.30;;;7.80;99.90;;;;;;5018852;28;20870;-80
2022/09/21 06:55:10;;;;;;;918.23;829.60;;;7.80;99.90;;;;;;5018219;28;20457;-81
2022/09/21 06:57:38;;;;;;;913.27;822.27;;;8.00;99.90;;;;;;5017362;28;20861;-81
2022/09/21 07:00:07;;;;;;;917.07;827.63;;;8.20;99.90;;;;;;5017950;28;20453;-81
2022/09/21 07:02:34;;;;;;;903.50;814.50;;;8.30;99.90;;;;;;5018265;28;20500;-82
2022/09/21 07:05:01;;;;;;;894.80;804.30;;;8.40;99.90;;;;;;5018244;28;20541;-82
2022/09/21 07:07:30;;;;;;;896.77;807.57;;;8.60;99.90;;;;;;5017906;28;20456;-85
2022/09/21 07:09:59;;;;;;;898.63;809.30;;;8.80;99.90;;;;;;5019931;28;20481;-82
2022/09/21 07:12:28;;;;;;;901.30;811.77;;;8.90;99.90;;;;;;5019390;28;20456;-83
2022/09/21 07:14:56;;;;;;;914.83;823.57;;;9.00;99.90;;;;;;5018926;28;20825;-81
2022/09/21 07:17:23;;;;;;;891.23;801.43;;;9.20;99.90;;;;;;5018482;28;20476;-83
2022/09/21 07:19:49;;;;;;;889.53;800.90;;;9.40;99.90;;;;;;5016913;28;20453;-82
2022/09/21 07:22:16;;;;;;;886.03;797.43;;;9.70;99.90;;;;;;5018110;28;20454;-82
2022/09/21 07:24:43;;;;;;;876.13;788.33;;;10.00;99.90;;;;;;5018375;28;20457;-82
2022/09/21 07:27:10;;;;;;;886.83;799.20;;;10.20;99.90;;;;;;5018331;28;20438;-82
2022/09/21 07:29:36;;;;;;;891.50;804.50;;;10.40;99.90;;;;;;5019096;28;20453;-82
2022/09/21 07:32:05;;;;;;;885.60;800.10;;;10.60;99.90;;;;;;5015960;28;20631;-82
2022/09/21 07:34:35;;;;;;;874.50;790.07;;;10.80;99.90;;;;;;5019032;28;20982;-81
2022/09/21 07:37:02;;;;;;;872.77;790.33;;;10.90;99.90;;;;;;5017645;28;20477;-84
2022/09/21 07:39:29;;;;;;;867.23;787.53;;;11.00;99.90;;;;;;5017896;28;20449;-79
2022/09/21 07:41:57;;;;;;;858.77;782.40;;;11.20;99.90;;;;;;5018357;28;20453;-82
2022/09/21 07:44:24;;;;;;;849.43;776.03;;;11.20;99.90;;;;;;5017876;28;20485;-81
2022/09/21 07:46:51;;;;;;;835.13;763.30;;;11.30;99.90;;;;;;5017994;28;20460;-82
2022/09/21 07:49:19;;;;;;;844.90;774.27;;;11.30;99.90;;;;;;5018345;28;20544;-81
2022/09/21 07:51:45;;;;;;;850.30;781.50;;;11.30;99.90;;;;;;5018304;28;20457;-82
2022/09/21 07:54:13;;;;;;;845.50;778.67;;;11.30;99.90;;;;;;5018077;28;20899;-83
2022/09/21 07:56:41;;;;;;;832.17;766.27;;;11.20;99.90;;;;;;5018754;28;20524;-81
2022/09/21 07:59:07;;;;;;;844.87;780.00;;;11.20;99.90;;;;;;5018244;28;20449;-81
2022/09/21 08:01:35;;;;;;;846.63;776.40;;;11.20;99.90;;;;;;5018425;28;20530;-81
2022/09/21 08:04:03;;;;;;;831.90;767.70;;;11.10;99.90;;;;;;5017530;28;20486;-80
2022/09/21 08:06:34;;;;;;;839.27;768.83;;;11.20;99.90;;;;;;5017704;28;20457;-82
2022/09/21 08:09:01;;;;;;;789.23;727.73;;;11.20;99.90;;;;;;5018539;28;20458;-80
2022/09/21 08:11:30;;;;;;;781.63;722.63;;;11.30;99.90;;;;;;5017761;28;20457;-82
2022/09/21 08:13:58;;;;;;;728.27;675.37;;;11.50;99.90;;;;;;5018950;28;20473;-82
2022/09/21 08:16:26;;;;;;;607.63;566.30;;;11.70;99.90;;;;;;5018015;28;20862;-83
2022/09/21 08:18:52;;;;;;;431.43;407.03;;;11.90;99.90;;;;;;5017883;28;20457;-83
2022/09/21 08:21:20;;;;;;;384.97;365.57;;;12.20;99.90;;;;;;5018200;28;20461;-83
2022/09/21 08:23:49;;;;;;;175.07;166.47;;;12.50;99.90;;;;;;5018293;28;20472;-83
2022/09/21 08:26:18;;;;;;;50.57;46.33;;;12.70;99.90;;;;;;5018080;28;20454;-83
2022/09/21 08:28:48;;;;;;;43.47;40.13;;;13.00;99.90;;;;;;5018331;28;20872;-83
2022/09/21 08:31:15;;;;;;;23.20;18.00;;;13.30;99.90;;;;;;5018426;28;20504;-84
2022/09/21 08:33:42;;;;;;;20.93;14.90;;;13.80;99.90;;;;;;5017860;28;20500;-83
2022/09/21 08:36:09;;;;;;;26.43;14.33;;;13.80;99.90;;;;;;5018002;28;20450;-83
2022/09/21 08:38:38;;;;;;;20.23;12.97;;;13.90;99.90;;;;;;5018362;28;20466;-82
2022/09/21 08:41:16;;;;;;;24.63;15.27;;;14.10;99.90;;;;;;5018342;28;20447;-82
2022/09/21 08:43:45;;;;;;;23.03;11.90;;;14.40;99.90;;;;;;5018168;28;20471;-82
2022/09/21 08:46:17;;;;;;;19.43;12.37;;;14.70;99.90;;;;;;5017715;28;20833;-83
2022/09/21 08:48:48;;;;;;;20.90;11.10;;;14.90;99.90;;;;;;5016883;28;20456;-83
2022/09/21 08:51:21;;;;;;;21.80;11.77;;;14.90;99.70;;;;;;5018531;28;20460;-82
2022/09/21 08:53:50;;;;;;;14.83;10.17;;;15.10;99.70;;;;;;5017645;28;20473;-82
2022/09/21 08:56:22;;;;;;;19.50;10.50;;;15.20;99.90;;;;;;5017233;28;20454;-82
2022/09/21 08:58:48;;;;;;;16.70;10.60;;;15.30;99.60;;;;;;5017804;28;20469;-82
2022/09/21 09:01:31;;;;;;;20.47;10.60;;;15.80;98.70;;;;;;5018401;28;20460;-83
2022/09/21 09:04:41;;;;;;;19.47;11.30;;;16.10;97.00;;;;;;5018939;28;20491;-83
2022/09/21 09:07:21;;;;;;;21.73;9.93;;;16.20;93.90;;;;;;5009162;28;20839;-83
2022/09/21 09:10:19;;;;;;;15.73;11.90;;;16.50;94.50;;;;;;5019271;28;20458;-83
2022/09/21 09:12:56;;;;;;;23.87;11.73;;;16.90;91.40;;;;;;5018954;28;20473;-82
2022/09/21 09:15:48;;;;;;;19.50;12.60;;;17.40;92.10;;;;;;5018985;28;20464;-84
2022/09/21 09:18:23;;;;;;;16.70;10.40;;;17.50;88.90;;;;;;5018495;28;20485;-85
2022/09/21 09:20:56;;;;;;;18.83;9.83;;;17.50;83.80;;;;;;5018398;28;20479;-84
2022/09/21 09:23:27;;;;;;;15.30;10.20;;;17.80;85.00;;;;;;5019180;28;20479;-84
2022/09/21 09:25:58;;;;;;;13.03;10.87;;;18.00;82.30;;;;;;5019799;28;20457;-83
2022/09/21 09:28:31;;;;;;;22.47;10.53;;;18.00;84.30;;;;;;5018998;28;20452;-83
2022/09/21 09:31:03;;;;;;;17.83;9.90;;;18.40;80.70;;;;;;5022264;28;20452;-85
2022/09/21 09:33:40;;;;;;;14.67;8.90;;;18.80;78.90;;;;;;5024266;28;20495;-83
2022/09/21 09:36:11;;;;;;;12.47;8.60;;;19.20;74.30;;;;;;5023950;28;20962;-84
2022/09/21 09:38:42;;;;;;;12.13;7.83;;;19.20;69.40;;;;;;5023260;28;20471;-84
2022/09/21 09:41:20;;;;;;;9.50;6.07;;;19.20;69.40;;;;;;5023822;28;20463;-83
2022/09/21 09:44:01;;;;;;;11.67;6.73;;;19.70;69.80;;;;;;5022962;28;20474;-84
2022/09/21 09:46:33;;;;;;;15.53;7.07;;;19.40;63.30;;;;;;5022537;28;20527;-84
2022/09/21 09:49:23;;;;;;;9.87;5.67;;;20.00;64.50;;;;;;5022908;28;20476;-84
2022/09/21 09:51:51;;;;;;;12.20;5.80;;;19.80;57.80;;;;;;5023617;28;20452;-84
2022/09/21 09:54:20;;;;;;;15.10;6.53;;;20.40;59.10;;;;;;5022933;28;20820;-84
2022/09/21 09:56:47;;;;;;;15.03;6.30;;;20.60;57.60;;;;;;5023337;28;20477;-84
2022/09/21 09:59:25;;;;;;;12.80;5.63;;;21.00;56.40;;;;;;5023377;28;20467;-84
2022/09/21 10:02:00;;;;;;;8.50;4.87;;;21.80;54.90;;;;;;5023015;28;20945;-84
2022/09/21 10:04:27;;;;;;;8.30;4.40;;;21.70;49.10;;;;;;5023521;28;20487;-84
2022/09/21 10:06:54;;;;;;;10.97;5.33;;;21.50;48.10;;;;;;5023528;28;20449;-84
2022/09/21 10:09:25;;;;;;;9.83;5.57;;;21.30;48.50;;;;;;5023335;28;20946;-83
2022/09/21 10:11:53;;;;;;;11.87;6.20;;;21.40;48.20;;;;;;5023153;28;20449;-84
2022/09/21 10:14:22;;;;;;;10.07;5.33;;;21.20;48.10;;;;;;5022679;28;20901;-86
2022/09/21 10:16:51;;;;;;;8.40;4.97;;;21.70;43.80;;;;;;5022301;28;20841;-84
2022/09/21 10:19:22;;;;;;;12.50;6.43;;;22.20;41.20;;;;;;5023015;28;20456;-85
2022/09/21 10:21:54;;;;;;;13.10;5.10;;;22.20;42.40;;;;;;5023321;28;20468;-84
2022/09/21 10:24:23;;;;;;;12.17;6.00;;;22.70;37.80;;;;;;5022090;28;21015;-84
2022/09/21 10:26:53;;;;;;;13.23;4.50;;;22.80;37.20;;;;;;5022928;28;20453;-84
2022/09/21 10:29:31;;;;;;;11.27;5.73;;;23.20;34.90;;;;;;5023313;28;20496;-84
2022/09/21 10:32:00;;;;;;;10.77;5.67;;;23.60;31.60;;;;;;5023751;28;20452;-84
2022/09/21 10:34:30;;;;;;;14.03;5.30;;;23.80;29.80;;;;;;5022476;28;20480;-84
2022/09/21 10:36:58;;;;;;;10.37;4.60;;;24.00;28.60;;;;;;5022517;28;20473;-84
2022/09/21 10:39:28;;;;;;;7.60;4.27;;;23.00;24.50;;;;;;5022620;28;20460;-85
2022/09/21 10:42:00;;;;;;;8.50;3.10;;;22.50;24.90;;;;;;5022217;28;20457;-84
2022/09/21 10:44:34;;;;;;;6.90;2.20;;;22.40;24.40;;;;;;5022491;28;20999;-84
2022/09/21 10:47:13;;;;;;;8.50;3.77;;;22.00;25.60;;;;;;5022178;28;20440;-84
2022/09/21 10:49:46;;;;;;;14.40;5.20;;;21.90;27.30;;;;;;5023273;28;20461;-85
2022/09/21 10:52:13;;;;;;;16.50;4.90;;;22.70;25.30;;;;;;5021834;28;20964;-84
2022/09/21 10:54:41;;;;;;;13.60;4.97;;;23.40;23.80;;;;;;5022565;28;20449;-84
2022/09/21 10:57:14;;;;;;;10.40;4.40;;;24.10;20.40;;;;;;5023016;28;20480;-84
2022/09/21 10:59:43;;;;;;;7.93;4.03;;;23.50;20.80;;;;;;5022229;28;20464;-85
2022/09/21 11:02:33;;;;;;;10.87;4.40;;;23.70;22.40;;;;;;5022398;28;20457;-84
2022/09/21 11:05:06;;;;;;;9.43;3.93;;;24.20;15.30;;;;;;5023094;28;20492;-85
2022/09/21 11:07:36;;;;;;;9.20;4.10;;;24.40;15.40;;;;;;5022354;28;20453;-84
2022/09/21 11:10:12;;;;;;;9.03;3.50;;;25.00;15.80;;;;;;5023001;28;20453;-85
2022/09/21 11:12:48;;;;;;;10.83;3.57;;;24.20;14.40;;;;;;5022186;28;20465;-84
2022/09/21 11:15:27;;;;;;;9.17;3.57;;;24.30;15.30;;;;;;5022666;28;20941;-84
2022/09/21 11:18:02;;;;;;;10.07;3.93;;;24.70;15.60;;;;;;5022267;28;20480;-85
2022/09/21 11:20:36;;;;;;;6.77;2.70;;;24.70;15.60;;;;;;5021800;28;20459;-83
2022/09/21 11:23:11;;;;;;;9.00;3.23;;;24.10;13.00;;;;;;5019293;28;20468;-84
2022/09/21 11:25:43;;;;;;;8.40;3.20;;;24.40;14.40;;;;;;5020955;28;20453;-83
2022/09/21 11:28:16;;;;;;;10.33;3.40;;;25.20;8.20;;;;;;5022579;28;20460;-88
2022/09/21 11:31:08;;;;;;;10.03;2.13;;;24.60;10.70;;;;;;5013158;28;20449;-85
2022/09/21 11:33:55;;;;;;;10.53;3.33;;;24.50;6.60;;;;;;5024518;28;20476;-87
2022/09/21 11:36:32;;;;;;;6.97;2.63;;;25.30;7.00;;;;;;5022836;28;20475;-85
2022/09/21 11:39:05;;;;;;;7.90;3.30;;;26.30;4.30;;;;;;5023627;28;20459;-85
2022/09/21 11:41:49;;;;;;;9.60;4.00;;;25.90;4.00;;;;;;5020960;28;20464;-86
2022/09/21 11:44:28;;;;;;;18.60;3.00;;;25.70;4.30;;;;;;5019149;28;20476;-85
2022/09/21 11:47:08;;;;;;;7.67;3.10;;;25.40;4.20;;;;;;5018316;28;20468;-87
2022/09/21 11:49:48;;;;;;;6.50;1.90;;;26.00;3.00;;;;;;5012216;28;20814;-85
2022/09/21 11:52:31;;;;;;;8.43;2.50;;;25.80;1.00;;;;;;5019269;28;20861;-85
2022/09/21 11:55:20;;;;;;;6.90;2.17;;;25.80;1.00;;;;;;5014422;28;20475;-85
2022/09/21 11:57:54;;;;;;;6.50;2.37;;;26.20;1.00;;;;;;5020482;28;20590;-86
2022/09/21 12:00:22;;;;;;;8.73;2.63;;;27.30;1.00;;;;;;5018615;28;20453;-85
2022/09/21 12:03:22;;;;;;;8.90;2.27;;;26.80;1.00;;;;;;5017958;28;20539;-87
2022/09/21 12:06:03;;;;;;;7.70;2.03;;;26.30;1.00;;;;;;5001886;28;20584;-85
2022/09/21 12:08:51;;;;;;;12.33;2.40;;;27.10;1.00;;;;;;5019208;28;20488;-82
2022/09/21 12:11:29;;;;;;;6.87;1.90;;;27.60;1.00;;;;;;5019693;28;20457;-83
2022/09/21 12:14:02;;;;;;;6.07;1.73;;;27.90;1.00;;;;;;5019201;28;20468;-82
2022/09/21 12:16:36;;;;;;;7.50;2.13;;;27.50;1.00;;;;;;5017997;28;20969;-81
2022/09/21 12:19:14;;;;;;;8.40;2.33;;;27.10;1.00;;;;;;5019147;28;20468;-80
2022/09/21 12:21:45;;;;;;;5.63;1.80;;;27.40;1.00;;;;;;5018525;28;20484;-83
2022/09/21 12:24:17;;;;;;;5.23;1.50;;;27.70;1.00;;;;;;5017691;28;20480;-83
2022/09/21 12:26:49;;;;;;;6.27;1.57;;;28.10;1.00;;;;;;5019052;28;20457;-82
2022/09/21 12:29:24;;;;;;;4.50;1.40;;;28.20;1.00;;;;;;5020395;28;20507;-83
2022/09/21 12:31:59;;;;;;;5.93;1.30;;;28.70;1.00;;;;;;5022081;28;20448;-83
2022/09/21 12:34:31;;;;;;;8.50;1.50;;;28.30;1.00;;;;;;5021483;28;20544;-83
2022/09/21 12:37:07;;;;;;;5.43;1.40;;;26.90;1.00;;;;;;5021283;28;20453;-82
2022/09/21 12:39:39;;;;;;;6.23;1.37;;;25.80;1.00;;;;;;5022137;28;20452;-83
2022/09/21 12:42:17;;;;;;;7.70;1.47;;;27.10;1.00;;;;;;5020092;28;20938;-82
2022/09/21 12:44:52;;;;;;;5.63;2.40;;;27.30;1.00;;;;;;5020866;28;20502;-84
2022/09/21 12:47:26;;;;;;;5.73;1.37;;;27.30;1.00;;;;;;5022336;28;20460;-83
2022/09/21 12:49:59;;;;;;;9.50;1.60;;;27.60;1.00;;;;;;5022949;28;20448;-82
2022/09/21 12:52:27;;;;;;;7.60;1.73;;;27.80;1.00;;;;;;5022995;28;20449;-83
2022/09/21 12:55:01;;;;;;;7.27;1.63;;;27.40;1.00;;;;;;5021244;28;20837;-82
2022/09/21 12:57:49;;;;;;;5.47;1.47;;;26.40;1.00;;;;;;5022202;28;20500;-83
2022/09/21 13:00:19;;;;;;;6.27;1.67;;;27.20;1.00;;;;;;5021773;28;20460;-83
2022/09/21 13:02:50;;;;;;;5.97;1.07;;;26.20;1.00;;;;;;5021289;28;20896;-83
2022/09/21 13:05:31;;;;;;;5.80;1.47;;;26.40;1.00;;;;;;5020235;28;20532;-83